Time;durP1;ratioP1;P1;durP2;ratioP2;P2;SDS_P1;SDS_P2;PMS_P1;PMS_P2;Temp;Humidity;BMP_temperature;BMP_pressure;BME280_temperature;BME280_humidity;BME280_pressure;Samples;Min_cycle;Max_cycle;Signal;HPM_P1;HPM_P2
2022/08/13 00:13:53;;;;;;;13.77;7.20;;;;;;;22.85;76.56;99988.69;31583117;28;20059;-76
2022/08/13 00:28:56;;;;;;;11.13;6.10;;;;;;;22.67;76.96;99992.69;31600103;28;20052;-76
2022/08/13 00:43:59;;;;;;;12.25;6.45;;;;;;;22.53;76.77;99991.69;31603096;28;20049;-75
2022/08/13 00:59:09;;;;;;;17.27;7.90;;;;;;;22.53;77.01;99985.41;31614662;28;20056;-76
2022/08/13 01:14:11;;;;;;;26.73;9.68;;;;;;;22.43;76.83;99984.91;31618339;28;20048;-76
2022/08/13 01:29:15;;;;;;;22.63;9.00;;;;;;;22.48;75.69;99977.84;31605166;28;20059;-76
2022/08/13 01:44:18;;;;;;;20.20;7.65;;;;;;;22.48;74.88;99972.31;31572720;28;20459;-75
2022/08/13 01:59:21;;;;;;;13.27;6.20;;;;;;;22.49;73.25;99969.06;31593701;28;20064;-76
2022/08/13 02:14:27;;;;;;;16.42;6.43;;;;;;;22.54;72.33;99964.78;31608746;28;20051;-74
2022/08/13 02:29:31;;;;;;;12.90;5.38;;;;;;;22.47;71.09;99949.44;31614285;28;20524;-76
2022/08/13 02:44:34;;;;;;;9.37;5.10;;;;;;;22.56;68.35;99948.44;31616676;28;20117;-75
2022/08/13 02:59:38;;;;;;;17.38;7.40;;;;;;;22.61;68.12;99942.16;31596641;28;20155;-76
2022/08/13 03:15:00;;;;;;;20.90;7.60;;;;;;;22.65;70.07;99953.72;31575465;28;20048;-76
2022/08/13 03:30:10;;;;;;;12.65;6.20;;;;;;;22.65;71.83;99965.53;31633336;28;20056;-77
2022/08/13 03:45:24;;;;;;;16.55;6.78;;;;;;;22.89;71.75;99967.78;31628435;28;20098;-76
2022/08/13 04:00:29;;;;;;;17.73;7.90;;;;;;;23.17;70.76;99942.78;31643089;28;20117;-76
2022/08/13 04:15:31;;;;;;;;;;;;;;;23.72;64.03;99946.59;31641639;28;20380;-76
2022/08/13 04:30:45;;;;;;;13.98;7.03;;;;;;;24.35;62.71;99940.09;31640879;28;19920;-75
2022/08/13 04:45:49;;;;;;;13.27;7.32;;;;;;;24.95;59.09;99938.03;31615356;28;20040;-75
2022/08/13 05:00:51;;;;;;;17.80;6.75;;;;;;;25.61;56.67;99937.72;31588931;28;20154;-74
2022/08/13 05:15:55;;;;;;;;;;;;;;;26.16;55.57;99923.03;31592254;28;20082;-75
2022/08/13 05:31:02;;;;;;;13.15;7.28;;;;;;;26.56;56.18;99923.13;31614737;27;19974;-76
2022/08/13 05:46:09;;;;;;;15.05;8.05;;;;;;;27.24;53.74;99912.19;31575142;28;20058;-76
2022/08/13 06:16:37;;;;;;;13.90;7.85;;;;;;;28.24;45.86;99908.44;31619071;28;20068;-73
2022/08/13 06:31:57;;;;;;;15.38;8.45;;;;;;;29.05;43.97;99905.28;31588387;28;20048;-74
2022/08/13 06:47:04;;;;;;;18.10;8.02;;;;;;;29.68;42.46;99914.09;31578763;28;20392;-73
2022/08/13 07:02:08;;;;;;;21.85;8.68;;;;;;;30.56;41.56;99895.72;31563239;28;20053;-75
2022/08/13 07:17:13;;;;;;;19.15;9.63;;;;;;;31.20;41.40;99905.63;31581294;28;20048;-75
2022/08/13 07:32:17;;;;;;;17.60;7.40;;;;;;;32.03;38.24;99895.25;31576732;28;20040;-75
2022/08/13 07:47:22;;;;;;;20.17;6.80;;;;;;;32.41;38.09;99886.53;31569777;28;20044;-75
2022/08/13 08:02:26;;;;;;;10.80;5.68;;;;;;;32.44;37.81;99879.75;31572727;28;20458;-76
2022/08/13 08:17:31;;;;;;;16.30;5.18;;;;;;;32.58;37.78;99868.94;31609018;28;20052;-75
2022/08/13 08:32:53;;;;;;;16.73;5.85;;;;;;;32.56;37.10;99857.53;31587185;28;20043;-75
2022/08/13 08:48:15;;;;;;;29.37;16.60;;;;;;;33.46;35.16;99830.38;31598336;28;20048;-76
2022/08/13 09:03:18;;;;;;;14.55;5.35;;;;;;;34.28;32.47;99820.41;31563949;28;20070;-76
2022/08/13 09:18:21;;;;;;;18.65;6.25;;;;;;;34.53;32.49;99794.78;31598980;28;20518;-81
2022/08/13 09:33:38;;;;;;;21.45;5.28;;;;;;;35.17;31.54;99781.06;31608135;28;20090;-74
2022/08/13 09:49:00;;;;;;;20.23;6.37;;;;;;;34.86;30.85;99770.47;31574657;28;20043;-74
2022/08/13 10:04:04;;;;;;;27.75;6.25;;;;;;;36.17;29.91;99774.47;31592668;28;20054;-78
2022/08/13 10:19:08;;;;;;;18.55;5.22;;;;;;;36.34;29.06;99762.94;31551435;28;20052;-73
2022/08/13 10:34:12;;;;;;;19.17;4.57;;;;;;;36.38;29.04;99742.66;31584155;28;20043;-75
2022/08/13 10:49:20;;;;;;;14.30;5.20;;;;;;;36.93;28.58;99727.09;31624835;28;20054;-74
2022/08/13 11:04:23;;;;;;;18.55;5.10;;;;;;;36.69;27.99;99731.19;31605281;28;20048;-74
2022/08/13 11:19:34;;;;;;;16.73;5.63;;;;;;;36.33;29.01;99721.16;31576592;28;20044;-77
2022/08/13 11:34:54;;;;;;;18.75;5.18;;;;;;;35.88;29.68;99715.38;31540853;28;20048;-77
2022/08/13 11:49:56;;;;;;;19.13;4.90;;;;;;;34.69;31.89;99688.88;31601282;28;20747;-75
2022/08/13 12:04:59;;;;;;;12.18;4.75;;;;;;;34.08;33.00;99673.22;31592333;28;20460;-75
2022/08/13 12:20:21;;;;;;;17.40;5.65;;;;;;;33.64;34.70;99681.16;31580909;28;20051;-74
2022/08/13 12:35:29;;;;;;;10.77;4.95;;;;;;;33.43;33.94;99662.75;31587320;28;20056;-76
2022/08/13 12:50:51;;;;;;;17.77;4.85;;;;;;;33.65;32.36;99660.13;31584973;28;20492;-75
2022/08/13 13:05:56;;;;;;;12.50;4.50;;;;;;;33.41;32.07;99659.78;31586376;28;20541;-77
2022/08/13 13:20:59;;;;;;;11.63;4.82;;;;;;;32.99;33.73;99664.97;31588324;28;20570;-77
2022/08/13 13:36:01;;;;;;;13.93;4.75;;;;;;;32.97;33.62;99673.25;31571251;28;20048;-78
2022/08/13 13:51:20;;;;;;;12.37;5.27;;;;;;;32.72;33.33;99676.94;31593153;28;20044;-79
2022/08/13 14:06:29;;;;;;;8.15;4.95;;;;;;;32.51;32.45;99668.25;31549832;28;20056;-78
2022/08/13 14:21:34;;;;;;;10.18;4.90;;;;;;;32.35;32.07;99666.97;31582394;28;20523;-76
2022/08/13 14:36:36;;;;;;;9.35;4.80;;;;;;;32.26;31.16;99653.59;31564372;28;20075;-77
2022/08/13 14:51:58;;;;;;;9.63;4.40;;;;;;;32.07;31.15;99652.09;31585494;28;20094;-77
2022/08/13 15:07:06;;;;;;;7.80;3.78;;;;;;;31.81;31.60;99638.75;31582072;28;20059;-76
2022/08/13 15:22:09;;;;;;;9.45;3.65;;;;;;;31.68;31.54;99636.25;31595921;28;20055;-77
2022/08/13 15:37:38;;;;;;;;;;;;;;;;;;;;;
2022/08/13 15:52:59;;;;;;;8.27;3.22;;;;;;;31.41;30.28;99650.91;31606590;28;20058;-78
2022/08/13 16:08:19;;;;;;;9.13;3.53;;;;;;;31.13;31.05;99651.31;31570554;28;20086;-78
2022/08/13 16:23:21;;;;;;;6.43;3.63;;;;;;;30.84;31.45;99648.13;31594709;28;20492;-77
2022/08/13 16:38:23;;;;;;;9.20;3.85;;;;;;;30.52;31.53;99666.41;31600625;28;20143;-79
2022/08/13 16:53:30;;;;;;;7.82;3.70;;;;;;;30.35;31.78;99685.91;31586879;28;20058;-76
2022/08/13 17:09:11;;;;;;;9.15;5.10;;;;;;;30.13;32.66;99687.47;31608103;28;20105;-77
2022/08/13 17:24:16;;;;;;;12.57;5.10;;;;;;;29.85;33.13;99696.09;31601496;28;20543;-76
2022/08/13 17:39:21;;;;;;;7.95;5.07;;;;;;;29.64;33.29;99712.34;31625900;28;20063;-75
2022/08/13 17:54:23;;;;;;;9.85;4.35;;;;;;;29.51;33.43;99721.69;31555026;28;20464;-76
2022/08/13 18:09:31;;;;;;;7.55;3.45;;;;;;;29.28;34.31;99724.44;31568616;28;20051;-77
2022/08/13 18:24:51;;;;;;;4.95;2.80;;;;;;;28.95;35.05;99728.28;31554472;28;20047;-77
2022/08/13 18:39:53;;;;;;;5.50;3.20;;;;;;;28.49;35.37;99712.09;31559472;28;20059;-77
2022/08/13 18:54:55;;;;;;;4.68;2.55;;;;;;;28.24;35.61;99694.31;31564969;28;20097;-79
2022/08/13 19:10:17;;;;;;;;;;;;;;;27.97;35.70;99677.03;31510669;28;20057;-77
2022/08/13 19:25:23;;;;;;;7.72;3.25;;;;;;;27.74;36.04;99656.63;31559866;28;19926;-79
2022/08/13 19:40:35;;;;;;;6.88;2.95;;;;;;;27.46;35.80;99655.28;31563453;28;20080;-74
2022/08/13 19:55:42;;;;;;;6.27;4.10;;;;;;;27.19;36.92;99653.94;31543268;28;20067;-76
2022/08/13 20:10:55;;;;;;;7.35;4.07;;;;;;;26.97;37.30;99677.53;31593446;28;20051;-78
2022/08/13 20:25:58;;;;;;;9.60;4.55;;;;;;;26.87;38.15;99681.31;31584341;28;20048;-77
2022/08/13 20:41:18;;;;;;;9.85;5.65;;;;;;;26.71;38.69;99672.03;31604894;28;20052;-77
2022/08/13 20:56:21;;;;;;;9.25;5.22;;;;;;;26.55;39.28;99671.13;31575799;28;20060;-76
2022/08/13 21:11:43;;;;;;;12.55;7.60;;;;;;;26.34;39.97;99656.41;31595602;28;20475;-76
2022/08/13 21:26:50;;;;;;;7.07;5.07;;;;;;;26.22;40.56;99655.84;31642024;28;20504;-73
2022/08/13 21:42:00;;;;;;;9.57;4.82;;;;;;;26.07;41.30;99648.06;31573365;28;20388;-75
2022/08/13 21:57:04;;;;;;;8.40;4.80;;;;;;;25.98;41.59;99665.19;31577569;28;20531;-75
2022/08/13 22:12:08;;;;;;;9.45;4.07;;;;;;;25.83;42.22;99649.03;31618519;28;20040;-75
2022/08/13 22:27:16;;;;;;;8.40;4.63;;;;;;;25.77;42.74;99633.75;31586567;28;20048;-76
2022/08/13 22:42:18;;;;;;;10.13;4.30;;;;;;;25.63;43.19;99641.34;31592397;28;20403;-75
2022/08/13 22:57:27;;;;;;;5.75;4.00;;;;;;;25.47;43.79;99629.22;31618701;28;20138;-75
2022/08/13 23:12:35;;;;;;;8.68;4.22;;;;;;;25.34;44.70;99620.13;31620376;28;20044;-76
2022/08/13 23:27:39;;;;;;;9.77;4.55;;;;;;;25.15;45.38;99609.06;31622005;28;20146;-75
2022/08/13 23:42:42;;;;;;;8.75;4.47;;;;;;;24.96;45.99;99597.28;31623082;28;20228;-74
2022/08/13 23:57:44;;;;;;;;;;;;;;;24.85;48.10;99594.66;31625236;28;20064;-74
